createdAt,value
2018-05-03T00:00:13.134Z,72.85
2018-05-03T00:01:11.884Z,72.94
2018-05-03T00:02:11.878Z,73.04
2018-05-03T00:03:11.736Z,72.75
2018-05-03T00:04:11.693Z,73.33
2018-05-03T00:05:11.601Z,72.94
2018-05-03T00:06:11.611Z,72.75
2018-05-03T00:07:11.401Z,73.23
2018-05-03T00:08:11.407Z,73.43
2018-05-03T00:09:11.238Z,73.43
2018-05-03T00:10:11.208Z,73.80
2018-05-03T00:11:11.109Z,73.52
2018-05-03T00:13:53.046Z,74.28
2018-05-03T00:14:53.062Z,74.38
2018-05-03T00:15:52.899Z,74.48
2018-05-03T00:16:52.840Z,74.57
2018-05-03T00:17:52.728Z,74.19
2018-05-03T00:18:52.743Z,74.76
2018-05-03T00:19:52.583Z,74.66
2018-05-03T00:20:52.582Z,74.66
2018-05-03T00:21:52.402Z,74.85
2018-05-03T00:22:52.358Z,75.52
2018-05-03T00:23:52.247Z,75.91
2018-05-03T00:24:52.268Z,76.20
2018-05-03T00:25:52.125Z,76.77
2018-05-03T00:26:52.078Z,76.86
2018-05-03T00:27:51.927Z,77.34
2018-05-03T00:28:51.886Z,77.06
2018-05-03T00:29:51.780Z,77.44
2018-05-03T00:30:51.830Z,77.69
2018-05-03T00:31:51.611Z,77.69
2018-05-03T00:32:51.630Z,78.26
2018-05-03T00:33:51.458Z,78.45
2018-05-03T00:34:51.422Z,78.83
2018-05-03T00:35:51.325Z,79.06
2018-05-03T00:36:51.329Z,79.22
2018-05-03T00:37:51.142Z,79.31
2018-05-03T00:38:51.127Z,79.12
2018-05-03T00:39:50.977Z,79.79
2018-05-03T00:40:50.985Z,80.55
2018-05-03T00:41:50.955Z,80.65
2018-05-03T00:42:50.863Z,81.60
2018-05-03T00:43:50.664Z,82.18
2018-05-03T00:44:50.660Z,83.51
2018-05-03T00:45:50.506Z,84.28
2018-05-03T00:46:50.502Z,84.09
2018-05-03T00:47:50.354Z,84.85
2018-05-03T00:48:50.369Z,84.85
2018-05-03T00:49:50.195Z,85.42
2018-05-03T00:50:50.191Z,86.19
2018-05-03T00:51:50.054Z,86.67
2018-05-03T00:52:49.997Z,87.05
2018-05-03T00:53:49.871Z,87.24
2018-05-03T00:54:49.908Z,87.72
2018-05-03T00:55:49.723Z,87.82
2018-05-03T00:56:49.747Z,87.87
2018-05-03T00:57:49.579Z,88.63
2018-05-03T00:58:49.520Z,88.44
2018-05-03T00:59:49.448Z,89.39
2018-05-03T01:00:49.430Z,89.30
2018-05-03T01:01:49.239Z,89.87
2018-05-03T01:02:49.277Z,89.68
2018-05-03T01:03:49.091Z,90.16
2018-05-03T01:04:49.050Z,90.45
2018-05-03T01:05:48.925Z,90.64
2018-05-03T01:06:48.963Z,90.45
2018-05-03T01:07:48.797Z,91.02
2018-05-03T01:08:48.772Z,91.02
2018-05-03T01:09:48.606Z,90.92
2018-05-03T01:10:48.580Z,91.02
2018-05-03T01:11:48.442Z,91.11
2018-05-03T01:12:48.417Z,91.40
2018-05-03T01:13:48.300Z,91.59
2018-05-03T01:16:30.562Z,91.78
2018-05-03T01:17:30.536Z,92.26
2018-05-03T01:18:30.417Z,92.79
2018-05-03T01:19:30.418Z,92.93
2018-05-03T01:20:30.239Z,92.36
2018-05-03T01:21:30.220Z,92.74
2018-05-03T01:22:30.075Z,93.31
2018-05-03T01:23:30.094Z,93.36
2018-05-03T01:24:29.920Z,93.50
2018-05-03T01:25:29.931Z,92.45
2018-05-03T01:26:29.752Z,93.21
2018-05-03T01:27:29.738Z,93.31
2018-05-03T01:28:29.620Z,92.79
2018-05-03T01:29:29.552Z,93.26
2018-05-03T01:30:29.443Z,93.60
2018-05-03T01:31:29.466Z,93.02
2018-05-03T01:32:29.286Z,93.31
2018-05-03T01:33:29.278Z,92.97
2018-05-03T01:34:29.150Z,93.84
2018-05-03T01:35:29.095Z,93.79
2018-05-03T01:36:28.972Z,93.31
2018-05-03T01:37:29.000Z,93.88
2018-05-03T01:38:28.843Z,93.93
2018-05-03T01:39:28.795Z,93.88
2018-05-03T01:40:28.647Z,93.84
2018-05-03T01:43:10.560Z,94.51
2018-05-03T01:44:11.555Z,94.70
2018-05-03T01:45:10.410Z,94.60
2018-05-03T01:46:10.420Z,95.08
2018-05-03T01:47:10.240Z,95.08
2018-05-03T01:48:10.223Z,95.08
2018-05-03T01:49:10.095Z,94.79
2018-05-03T01:50:10.032Z,94.60
2018-05-03T01:51:09.934Z,95.08
2018-05-03T01:52:10.046Z,95.46
2018-05-03T01:53:09.773Z,95.27
2018-05-03T01:54:10.822Z,95.56
2018-05-03T01:55:09.633Z,95.46
2018-05-03T01:57:51.553Z,95.36
2018-05-03T02:00:33.670Z,96.22
2018-05-03T02:01:33.556Z,96.03
2018-05-03T02:02:33.410Z,95.84
2018-05-03T02:03:33.360Z,95.84
2018-05-03T02:04:33.241Z,96.22
2018-05-03T02:05:33.310Z,95.84
2018-05-03T02:06:33.079Z,96.98
2018-05-03T02:07:33.088Z,96.89
2018-05-03T02:08:32.926Z,96.80
2018-05-03T02:09:32.887Z,96.89
2018-05-03T02:10:32.791Z,96.70
2018-05-03T02:11:32.842Z,96.70
2018-05-03T02:12:32.606Z,96.80
2018-05-03T02:15:14.559Z,96.89
2018-05-03T02:16:14.543Z,96.70
2018-05-03T02:17:14.411Z,96.89
2018-05-03T02:18:14.420Z,97.66
2018-05-03T02:19:14.246Z,97.47
2018-05-03T02:20:14.222Z,97.27
2018-05-03T02:21:14.122Z,97.27
2018-05-03T02:22:14.138Z,97.37
2018-05-03T02:23:13.925Z,97.27
2018-05-03T02:24:13.938Z,97.18
2018-05-03T02:25:13.781Z,97.27
2018-05-03T02:26:13.764Z,97.56
2018-05-03T02:27:13.645Z,97.47
2018-05-03T02:28:13.556Z,98.32
2018-05-03T02:29:13.449Z,98.32
2018-05-03T02:30:13.481Z,98.23
2018-05-03T02:31:13.290Z,97.27
2018-05-03T02:32:13.312Z,98.13
2018-05-03T02:33:13.153Z,98.23
2018-05-03T02:35:55.068Z,97.27
2018-05-03T02:36:56.039Z,97.56
2018-05-03T02:37:54.908Z,97.66
2018-05-03T02:40:37.073Z,97.80
2018-05-03T02:41:37.098Z,98.18
2018-05-03T02:42:37.071Z,98.23
2018-05-03T02:43:36.902Z,98.03
2018-05-03T02:44:36.748Z,98.23
2018-05-03T02:45:36.709Z,97.99
2018-05-03T02:46:36.595Z,98.27
2018-05-03T02:47:37.583Z,97.99
2018-05-03T02:48:36.439Z,99.13
2018-05-03T02:49:36.359Z,99.13
2018-05-03T02:50:36.296Z,98.56
2018-05-03T02:51:36.249Z,98.94
2018-05-03T02:52:36.139Z,98.75
2018-05-03T02:53:36.166Z,99.23
2018-05-03T02:54:35.958Z,99.32
2018-05-03T02:57:18.082Z,99.52
2018-05-03T02:58:19.143Z,99.71
2018-05-03T02:59:17.935Z,99.04
2018-05-03T03:00:17.892Z,99.90
2018-05-03T03:01:17.762Z,99.90
2018-05-03T03:02:17.792Z,99.99
2018-05-03T03:03:17.621Z,99.99
2018-05-03T03:04:17.584Z,99.99
2018-05-03T03:05:17.444Z,99.32
2018-05-03T03:07:59.587Z,99.04
2018-05-03T03:08:59.633Z,98.75
2018-05-03T03:09:59.418Z,99.13
2018-05-03T03:10:59.397Z,99.32
2018-05-03T03:11:59.251Z,99.23
2018-05-03T03:12:59.207Z,99.13
2018-05-03T03:13:59.110Z,99.32
2018-05-03T03:14:59.122Z,99.52
2018-05-03T03:15:58.943Z,99.32
2018-05-03T03:18:41.099Z,98.56
2018-05-03T03:19:41.057Z,98.18
2018-05-03T03:20:40.986Z,97.80
2018-05-03T03:21:40.972Z,97.32
2018-05-03T03:22:40.772Z,96.84
2018-05-03T03:23:40.754Z,96.75
2018-05-03T03:24:40.623Z,96.75
2018-05-03T03:25:40.566Z,97.32
2018-05-03T03:26:40.443Z,96.75
2018-05-03T03:27:40.496Z,96.84
2018-05-03T03:28:40.283Z,96.84
2018-05-03T03:29:40.313Z,95.89
2018-05-03T03:30:40.127Z,95.79
2018-05-03T03:33:22.078Z,95.32
2018-05-03T03:34:22.081Z,94.65
2018-05-03T03:35:22.088Z,94.27
2018-05-03T03:38:04.079Z,93.51
2018-05-03T03:39:04.099Z,93.41
2018-05-03T03:40:03.940Z,93.51
2018-05-03T03:41:03.931Z,93.31
2018-05-03T03:42:03.769Z,94.12
2018-05-03T03:44:45.590Z,93.98
2018-05-03T03:45:46.563Z,93.93
2018-05-03T03:46:45.427Z,93.55
2018-05-03T03:47:45.421Z,93.02
2018-05-03T03:48:45.261Z,93.12
2018-05-03T03:49:45.218Z,93.17
2018-05-03T03:50:45.123Z,93.22
2018-05-03T03:51:45.139Z,92.69
2018-05-03T03:52:44.949Z,92.69
2018-05-03T03:53:44.945Z,93.08
2018-05-03T03:54:44.786Z,93.08
2018-05-03T03:55:45.813Z,92.88
2018-05-03T03:56:44.735Z,93.27
2018-05-03T03:57:44.664Z,92.88
2018-05-03T03:58:44.466Z,92.69
2018-05-03T03:59:44.477Z,93.46
2018-05-03T04:00:44.313Z,92.98
2018-05-03T04:01:44.310Z,92.98
2018-05-03T04:02:44.149Z,92.69
2018-05-03T04:05:26.090Z,92.79
2018-05-03T04:06:27.151Z,93.27
2018-05-03T04:07:25.959Z,92.50
2018-05-03T04:10:08.094Z,92.60
2018-05-03T04:12:50.129Z,92.98
2018-05-03T04:15:32.090Z,92.98
2018-05-03T04:16:32.093Z,93.17
2018-05-03T04:17:31.945Z,93.51
2018-05-03T04:18:31.907Z,93.41
2018-05-03T04:19:31.764Z,93.74
2018-05-03T04:20:31.810Z,93.51
2018-05-03T04:21:31.605Z,93.32
2018-05-03T04:22:32.775Z,93.60
2018-05-03T04:23:31.455Z,93.65
2018-05-03T04:26:13.595Z,92.65
2018-05-03T04:27:13.566Z,93.51
2018-05-03T04:28:13.454Z,93.60
2018-05-03T04:29:13.438Z,93.79
2018-05-03T04:30:13.262Z,94.46
2018-05-03T04:31:13.244Z,94.27
2018-05-03T04:32:13.125Z,94.17
2018-05-03T04:33:14.074Z,94.27
2018-05-03T04:34:12.973Z,94.17
2018-05-03T04:36:55.110Z,94.93
2018-05-03T04:37:55.073Z,94.37
2018-05-03T04:38:54.957Z,95.12
2018-05-03T04:39:54.982Z,95.03
2018-05-03T04:40:54.778Z,95.41
2018-05-03T04:41:54.697Z,94.93
2018-05-03T04:42:54.607Z,94.93
2018-05-03T04:43:54.562Z,95.03
2018-05-03T04:44:54.447Z,94.74
2018-05-03T04:45:54.375Z,95.61
2018-05-03T04:46:54.412Z,95.12
2018-05-03T04:47:54.314Z,95.12
2018-05-03T04:48:54.159Z,95.22
2018-05-03T04:51:36.107Z,94.74
2018-05-03T04:52:36.128Z,95.12
2018-05-03T04:53:35.947Z,95.41
2018-05-03T04:54:36.988Z,94.84
2018-05-03T04:55:35.790Z,95.12
2018-05-03T04:56:35.807Z,94.93
2018-05-03T04:57:35.628Z,94.93
2018-05-03T04:58:35.643Z,94.74
2018-05-03T04:59:35.500Z,94.74
2018-05-03T05:00:35.447Z,95.12
2018-05-03T05:01:35.320Z,94.46
2018-05-03T05:04:17.631Z,94.56
2018-05-03T05:05:17.596Z,94.65
2018-05-03T05:06:17.456Z,94.84
2018-05-03T05:07:17.488Z,94.65
2018-05-03T05:08:17.335Z,94.84
2018-05-03T05:09:17.281Z,94.03
2018-05-03T05:10:17.146Z,93.93
2018-05-03T05:11:17.098Z,93.84
2018-05-03T05:12:16.967Z,93.93
2018-05-03T05:13:17.007Z,93.46
2018-05-03T05:14:16.804Z,92.88
2018-05-03T05:15:16.851Z,93.17
2018-05-03T05:16:16.674Z,93.08
2018-05-03T05:17:16.641Z,93.08
2018-05-03T05:18:16.485Z,93.08
2018-05-03T05:20:58.690Z,93.17
2018-05-03T05:21:58.810Z,92.79
2018-05-03T05:22:58.478Z,92.88
2018-05-03T05:23:58.434Z,92.79
2018-05-03T05:24:58.289Z,93.17
2018-05-03T05:25:58.297Z,93.46
2018-05-03T05:26:58.133Z,93.08
2018-05-03T05:27:58.150Z,93.08
2018-05-03T05:28:57.968Z,92.88
2018-05-03T05:29:57.976Z,92.69
2018-05-03T05:30:57.817Z,92.50
2018-05-03T05:31:57.774Z,92.79
2018-05-03T05:32:57.652Z,92.17
2018-05-03T05:33:57.687Z,91.93
2018-05-03T05:34:57.483Z,91.98
2018-05-03T05:35:57.542Z,91.69
2018-05-03T05:36:57.361Z,91.78
2018-05-03T05:37:57.303Z,92.07
2018-05-03T05:38:57.258Z,91.31
2018-05-03T05:39:57.221Z,91.31
2018-05-03T05:40:57.023Z,91.21
2018-05-03T05:41:57.036Z,91.12
2018-05-03T05:42:56.852Z,90.64
2018-05-03T05:43:56.777Z,90.55
2018-05-03T05:44:56.700Z,90.36
2018-05-03T05:45:57.703Z,90.88
2018-05-03T05:46:56.523Z,90.26
2018-05-03T05:47:57.509Z,90.59
2018-05-03T05:48:56.368Z,90.02
2018-05-03T05:51:38.620Z,90.36
2018-05-03T05:52:38.609Z,90.40
2018-05-03T05:53:38.470Z,90.11
2018-05-03T05:56:20.612Z,89.92
2018-05-03T05:57:20.633Z,89.64
2018-05-03T05:58:20.450Z,88.87
2018-05-03T05:59:20.485Z,89.25
2018-05-03T06:00:20.286Z,88.63
2018-05-03T06:03:02.145Z,82.26
2018-05-03T06:04:02.089Z,81.68
2018-05-03T06:05:01.960Z,78.47
2018-05-03T06:06:01.996Z,78.53
2018-05-03T06:07:01.810Z,79.00
2018-05-03T06:08:01.839Z,80.16
2018-05-03T06:09:01.648Z,80.77
2018-05-03T06:11:43.621Z,75.45
2018-05-03T06:12:43.651Z,74.43
2018-05-03T06:13:43.452Z,73.24
2018-05-03T06:16:25.665Z,72.03
2018-05-03T06:17:25.599Z,72.61
2018-05-03T06:18:25.475Z,73.44
2018-05-03T06:19:25.429Z,74.26
2018-05-03T06:20:25.303Z,75.22
2018-05-03T06:21:25.340Z,75.22
2018-05-03T06:22:25.142Z,74.05
2018-05-03T06:23:25.193Z,72.20
2018-05-03T06:24:25.018Z,70.32
2018-05-03T06:25:24.955Z,67.67
2018-05-03T06:26:24.829Z,66.39
2018-05-03T06:27:24.864Z,66.86
2018-05-03T06:28:24.670Z,67.22
2018-05-03T06:29:24.713Z,68.14
2018-05-03T06:30:24.514Z,69.39
2018-05-03T06:31:24.500Z,69.10
2018-05-03T06:32:24.389Z,69.29
2018-05-03T06:33:24.405Z,69.33
2018-05-03T06:34:24.893Z,69.10
2018-05-03T06:35:24.216Z,70.12
2018-05-03T06:36:24.043Z,69.90
2018-05-03T06:39:06.154Z,66.83
2018-05-03T06:40:06.104Z,66.96
2018-05-03T06:41:06.006Z,66.83
2018-05-03T06:42:05.929Z,67.38
2018-05-03T06:43:05.820Z,67.47
2018-05-03T06:44:05.841Z,66.89
2018-05-03T06:45:05.667Z,68.30
2018-05-03T06:46:06.703Z,68.97
2018-05-03T06:47:05.507Z,69.39
2018-05-03T06:48:05.508Z,68.87
2018-05-03T06:49:05.367Z,68.72
2018-05-03T06:51:47.661Z,65.43
2018-05-03T06:52:47.662Z,63.38
2018-05-03T06:53:47.467Z,62.42
2018-05-03T06:54:47.485Z,62.19
2018-05-03T06:55:47.365Z,63.06
2018-05-03T06:56:47.272Z,63.70
2018-05-03T06:57:47.164Z,64.22
2018-05-03T06:58:47.202Z,61.94
2018-05-03T06:59:47.016Z,60.63
2018-05-03T07:00:47.042Z,61.40
2018-05-03T07:01:46.855Z,61.17
2018-05-03T07:04:29.232Z,60.98
2018-05-03T07:05:29.151Z,61.24
2018-05-03T07:06:28.982Z,62.01
2018-05-03T07:07:29.037Z,61.14
2018-05-03T07:08:28.832Z,61.85
2018-05-03T07:11:11.175Z,63.57
2018-05-03T07:12:11.204Z,63.86
2018-05-03T07:13:11.015Z,63.16
2018-05-03T07:14:10.995Z,61.36
2018-05-03T07:15:10.869Z,61.08
2018-05-03T07:16:10.897Z,60.98
2018-05-03T07:17:10.683Z,60.43
2018-05-03T07:18:10.610Z,59.19
2018-05-03T07:19:10.536Z,60.31
2018-05-03T07:20:10.458Z,60.40
2018-05-03T07:21:10.428Z,59.57
2018-05-03T07:22:10.300Z,59.31
2018-05-03T07:23:10.223Z,57.39
2018-05-03T07:24:10.175Z,58.51
2018-05-03T07:25:10.061Z,58.39
2018-05-03T07:26:10.027Z,58.70
2018-05-03T07:27:09.907Z,57.39
2018-05-03T07:28:09.844Z,57.10
2018-05-03T07:29:09.761Z,56.74
2018-05-03T07:30:09.693Z,56.52
2018-05-03T07:31:09.625Z,57.22
2018-05-03T07:33:51.637Z,57.20
2018-05-03T07:34:51.639Z,56.62
2018-05-03T07:35:51.493Z,54.50
2018-05-03T07:36:52.446Z,55.41
2018-05-03T07:37:51.341Z,56.82
2018-05-03T07:38:51.301Z,58.07
2018-05-03T07:39:51.189Z,57.17
2018-05-03T07:40:51.173Z,57.04
2018-05-03T07:41:51.051Z,56.62
2018-05-03T07:42:51.017Z,55.49
2018-05-03T07:43:50.901Z,54.46
2018-05-03T07:46:33.182Z,52.83
2018-05-03T07:47:33.090Z,53.76
2018-05-03T07:48:33.039Z,54.65
2018-05-03T07:49:32.952Z,53.38
2018-05-03T07:50:32.940Z,53.92
2018-05-03T07:51:32.898Z,53.16
2018-05-03T07:52:32.722Z,53.74
2018-05-03T07:53:32.629Z,52.99
2018-05-03T07:54:32.549Z,51.86
2018-05-03T07:57:14.679Z,53.05
2018-05-03T07:58:14.612Z,51.84
2018-05-03T07:59:14.511Z,51.76
2018-05-03T08:00:14.453Z,50.27
2018-05-03T08:01:14.405Z,49.29
2018-05-03T08:02:14.318Z,50.54
2018-05-03T08:03:14.237Z,50.35
2018-05-03T08:04:14.157Z,50.30
2018-05-03T08:05:14.070Z,53.32
2018-05-03T08:06:14.060Z,53.38
2018-05-03T08:07:13.950Z,52.25
2018-05-03T08:08:14.874Z,51.60
2018-05-03T08:09:13.773Z,53.16
2018-05-03T08:10:13.694Z,55.27
2018-05-03T08:11:13.633Z,56.27
2018-05-03T08:12:13.546Z,56.56
2018-05-03T08:13:13.492Z,57.28
2018-05-03T08:14:13.397Z,58.17
2018-05-03T08:15:13.364Z,57.68
2018-05-03T08:16:13.261Z,58.26
2018-05-03T08:17:13.213Z,56.76
2018-05-03T08:19:55.197Z,57.30
2018-05-03T08:20:55.097Z,56.91
2018-05-03T08:21:55.026Z,54.99
2018-05-03T08:22:54.946Z,55.15
2018-05-03T08:23:54.884Z,55.05
2018-05-03T08:26:37.192Z,55.37
2018-05-03T08:29:19.183Z,54.38
2018-05-03T08:30:19.117Z,54.63
2018-05-03T08:31:19.016Z,52.44
2018-05-03T08:32:19.018Z,51.89
2018-05-03T08:33:18.881Z,49.63
2018-05-03T08:34:19.819Z,50.81
2018-05-03T08:35:18.740Z,49.75
2018-05-03T08:38:00.664Z,51.53
2018-05-03T08:39:00.599Z,50.66
2018-05-03T08:40:00.569Z,50.76
2018-05-03T08:41:00.455Z,50.42
2018-05-03T08:42:00.384Z,52.26
2018-05-03T08:43:00.310Z,54.25
2018-05-03T08:44:00.277Z,53.87
2018-05-03T08:45:00.192Z,54.38
2018-05-03T08:46:00.124Z,53.47
2018-05-03T08:48:42.185Z,50.71
2018-05-03T08:49:43.152Z,51.45
2018-05-03T08:50:42.017Z,52.12
2018-05-03T08:51:41.974Z,52.70
2018-05-03T08:52:41.902Z,52.73
2018-05-03T08:53:41.806Z,49.55
2018-05-03T08:54:41.753Z,47.22
2018-05-03T08:57:23.693Z,45.34
2018-05-03T08:58:23.611Z,44.64
2018-05-03T08:59:23.536Z,44.71
2018-05-03T09:00:24.492Z,45.53
2018-05-03T09:01:23.419Z,46.67
2018-05-03T09:04:05.683Z,47.30
2018-05-03T09:05:05.649Z,47.51
2018-05-03T09:06:05.530Z,47.41
2018-05-03T09:07:05.497Z,47.58
2018-05-03T09:08:05.395Z,48.40
2018-05-03T09:09:05.325Z,46.62
2018-05-03T09:10:05.272Z,45.56
2018-05-03T09:11:05.201Z,46.28
2018-05-03T09:12:05.107Z,46.73
2018-05-03T09:14:47.183Z,48.18
2018-05-03T09:15:47.151Z,47.53
2018-05-03T09:16:47.046Z,49.51
2018-05-03T09:17:46.992Z,51.14
2018-05-03T09:18:46.900Z,50.95
2018-05-03T09:21:29.212Z,49.02
2018-05-03T09:24:11.201Z,46.09
2018-05-03T09:25:11.141Z,45.63
2018-05-03T09:26:11.073Z,45.46
2018-05-03T09:27:10.992Z,44.62
2018-05-03T09:28:10.910Z,42.52
2018-05-03T09:29:10.843Z,42.79
2018-05-03T09:30:10.755Z,42.49
2018-05-03T09:31:10.734Z,42.49
2018-05-03T09:32:10.623Z,43.54
2018-05-03T09:33:10.566Z,43.13
2018-05-03T09:34:10.473Z,43.94
2018-05-03T09:35:10.411Z,42.52
2018-05-03T09:36:10.360Z,41.48
2018-05-03T09:37:10.272Z,41.88
2018-05-03T09:38:10.184Z,42.69
2018-05-03T09:40:52.196Z,42.85
2018-05-03T09:41:52.195Z,43.14
2018-05-03T09:42:52.051Z,43.02
2018-05-03T09:45:34.188Z,42.61
2018-05-03T09:46:34.164Z,42.83
2018-05-03T09:47:34.066Z,42.80
2018-05-03T09:50:16.188Z,43.47
2018-05-03T09:51:16.278Z,44.68
2018-05-03T09:52:16.104Z,47.10
2018-05-03T09:53:16.107Z,46.06
2018-05-03T09:54:15.907Z,44.35
2018-05-03T09:55:15.898Z,43.61
2018-05-03T09:56:15.771Z,42.61
2018-05-03T09:57:15.762Z,42.49
2018-05-03T09:58:15.639Z,43.03
2018-05-03T09:59:15.603Z,43.51
2018-05-03T10:00:15.485Z,43.40
2018-05-03T10:02:57.721Z,45.51
2018-05-03T10:05:39.701Z,43.32
2018-05-03T10:06:40.697Z,43.68
2018-05-03T10:07:39.643Z,43.32
2018-05-03T10:08:39.556Z,43.37
2018-05-03T10:09:39.410Z,43.60
2018-05-03T10:12:21.733Z,41.53
2018-05-03T10:13:21.798Z,41.89
2018-05-03T10:14:21.575Z,43.27
2018-05-03T10:17:03.844Z,41.11
2018-05-03T10:18:03.734Z,39.64
2018-05-03T10:19:03.573Z,40.42
2018-05-03T10:20:03.609Z,40.30
2018-05-03T10:21:03.431Z,41.30
2018-05-03T10:22:03.482Z,42.63
2018-05-03T10:23:03.335Z,43.23
2018-05-03T10:24:03.282Z,41.99
2018-05-03T10:25:03.135Z,41.63
2018-05-03T10:26:03.080Z,41.65
2018-05-03T10:27:02.999Z,39.64
2018-05-03T10:28:02.952Z,40.15
2018-05-03T10:29:03.019Z,39.69
2018-05-03T10:30:02.897Z,39.97
2018-05-03T10:31:02.728Z,39.95
2018-05-03T10:33:44.737Z,40.07
2018-05-03T10:36:26.733Z,41.18
2018-05-03T10:39:08.735Z,41.59
2018-05-03T10:41:50.714Z,42.86
2018-05-03T10:42:50.921Z,41.61
2018-05-03T10:43:50.598Z,41.59
2018-05-03T10:44:50.516Z,41.26
2018-05-03T10:45:50.709Z,42.50
2018-05-03T10:46:50.439Z,43.37
2018-05-03T10:47:50.333Z,44.02
2018-05-03T10:48:50.872Z,44.02
2018-05-03T10:49:50.405Z,44.89
2018-05-03T10:50:50.850Z,43.23
2018-05-03T10:51:50.026Z,41.92
2018-05-03T10:52:49.947Z,40.69
2018-05-03T10:53:49.903Z,40.22
2018-05-03T10:54:52.097Z,39.74
2018-05-03T10:55:49.752Z,38.74
2018-05-03T10:56:49.776Z,37.70
2018-05-03T10:57:49.610Z,36.82
2018-05-03T10:58:52.510Z,37.30
2018-05-03T10:59:49.516Z,39.99
2018-05-03T11:02:31.714Z,37.87
2018-05-03T11:03:31.690Z,39.11
2018-05-03T11:04:31.653Z,38.16
2018-05-03T11:05:31.715Z,37.15
2018-05-03T11:06:31.528Z,36.65
2018-05-03T11:09:13.744Z,38.91
2018-05-03T11:10:13.731Z,39.70
2018-05-03T11:11:13.685Z,38.41
2018-05-03T11:12:13.651Z,37.46
2018-05-03T11:13:13.534Z,37.91
2018-05-03T11:14:13.491Z,38.74
2018-05-03T11:15:13.318Z,37.79
2018-05-03T11:16:13.372Z,37.79
2018-05-03T11:17:13.182Z,38.46
2018-05-03T11:18:13.117Z,38.46
2018-05-03T11:19:13.039Z,39.24
2018-05-03T11:20:13.127Z,39.78
2018-05-03T11:21:12.896Z,39.47
2018-05-03T11:22:12.898Z,40.36
2018-05-03T11:23:12.787Z,41.44
2018-05-03T11:24:12.739Z,40.95
2018-05-03T11:25:12.675Z,37.77
2018-05-03T11:26:12.623Z,36.23
2018-05-03T11:27:12.523Z,35.50
2018-05-03T11:28:12.428Z,36.85
2018-05-03T11:29:12.344Z,35.88
2018-05-03T11:30:12.354Z,35.30
2018-05-03T11:31:12.216Z,36.43
2018-05-03T11:32:12.236Z,37.39
2018-05-03T11:33:12.093Z,37.19
2018-05-03T11:34:12.069Z,37.08
2018-05-03T11:35:11.946Z,38.59
2018-05-03T11:36:12.992Z,38.87
2018-05-03T11:37:11.787Z,38.41
2018-05-03T11:38:11.768Z,38.33
2018-05-03T11:39:11.868Z,40.36
2018-05-03T11:40:11.692Z,38.85
2018-05-03T11:41:11.529Z,39.16
2018-05-03T11:42:11.489Z,39.74
2018-05-03T11:43:11.480Z,39.64
2018-05-03T11:45:53.530Z,41.83
2018-05-03T11:46:53.503Z,42.89
2018-05-03T11:47:53.533Z,42.99
2018-05-03T11:50:35.267Z,44.02
2018-05-03T11:51:35.205Z,43.57
2018-05-03T11:52:35.138Z,43.76
2018-05-03T11:53:35.127Z,42.39
2018-05-03T11:54:34.945Z,43.47
2018-05-03T11:55:34.956Z,42.60
2018-05-03T11:56:34.825Z,42.43
2018-05-03T11:59:16.833Z,43.52
2018-05-03T12:00:16.722Z,44.00
2018-05-03T12:01:16.630Z,45.35
2018-05-03T12:02:16.640Z,45.61
2018-05-03T12:03:16.496Z,45.32
2018-05-03T12:04:16.449Z,46.19
2018-05-03T12:05:16.352Z,46.41
2018-05-03T12:06:16.286Z,46.04
2018-05-03T12:07:16.157Z,45.37
2018-05-03T12:08:16.162Z,45.06
2018-05-03T12:09:16.003Z,45.56
2018-05-03T12:10:15.975Z,45.54
2018-05-03T12:11:15.934Z,46.04
2018-05-03T12:12:15.834Z,45.18
2018-05-03T12:13:15.702Z,45.45
2018-05-03T12:14:15.636Z,45.73
2018-05-03T12:15:15.550Z,45.73
2018-05-03T12:16:15.487Z,45.66
2018-05-03T12:17:15.416Z,45.18
2018-05-03T12:18:15.419Z,44.34
2018-05-03T12:19:15.258Z,43.76
2018-05-03T12:21:57.338Z,43.08
2018-05-03T12:22:57.208Z,42.50
2018-05-03T12:23:57.159Z,42.72
2018-05-03T12:24:59.380Z,41.64
2018-05-03T12:25:56.955Z,41.45
2018-05-03T12:26:56.929Z,41.26
2018-05-03T12:27:56.804Z,41.76
2018-05-03T12:30:42.783Z,44.05
2018-05-03T12:31:42.773Z,44.00
2018-05-03T12:32:42.619Z,43.62
2018-05-03T12:33:42.654Z,44.68
2018-05-03T12:34:42.451Z,44.68
2018-05-03T12:35:42.460Z,44.58
2018-05-03T12:36:42.296Z,43.71
2018-05-03T12:37:42.299Z,44.77
2018-05-03T12:38:42.156Z,45.18
2018-05-03T12:39:43.149Z,45.37
2018-05-03T12:40:42.019Z,44.60
2018-05-03T12:41:42.007Z,45.25
2018-05-03T12:42:41.842Z,45.35
2018-05-03T12:43:41.794Z,45.45
2018-05-03T12:44:41.724Z,43.64
2018-05-03T12:45:41.620Z,44.38
2018-05-03T12:46:41.551Z,44.12
2018-05-03T12:47:42.501Z,44.22
2018-05-03T12:48:41.376Z,44.89
2018-05-03T12:49:41.323Z,43.33
2018-05-03T12:50:41.251Z,42.49
2018-05-03T12:51:41.308Z,45.45
2018-05-03T12:52:41.103Z,45.37
2018-05-03T12:53:41.006Z,46.14
2018-05-03T12:54:40.980Z,46.65
2018-05-03T12:55:41.012Z,46.45
2018-05-03T12:56:40.785Z,46.86
2018-05-03T12:57:40.801Z,47.53
2018-05-03T12:58:40.647Z,46.58
2018-05-03T12:59:40.679Z,46.07
2018-05-03T13:00:40.526Z,46.58
2018-05-03T13:01:40.495Z,46.96
2018-05-03T13:02:40.327Z,47.22
2018-05-03T13:03:41.367Z,47.92
2018-05-03T13:04:40.160Z,47.34
2018-05-03T13:05:40.237Z,47.17
2018-05-03T13:06:40.042Z,46.96
2018-05-03T13:07:40.040Z,47.53
2018-05-03T13:08:39.856Z,46.38
2018-05-03T13:11:21.776Z,46.36
2018-05-03T13:12:21.739Z,46.26
2018-05-03T13:13:21.645Z,46.65
2018-05-03T13:14:21.580Z,46.58
2018-05-03T13:15:21.456Z,46.50
2018-05-03T13:16:21.430Z,45.64
2018-05-03T13:17:21.311Z,45.25
2018-05-03T13:18:21.349Z,45.15
2018-05-03T13:19:21.210Z,43.64
2018-05-03T13:22:03.295Z,42.87
2018-05-03T13:23:03.769Z,43.35
2018-05-03T13:24:03.146Z,43.64
2018-05-03T13:25:03.926Z,43.23
2018-05-03T13:26:02.974Z,44.38
2018-05-03T13:27:02.903Z,43.14
2018-05-03T13:28:02.835Z,43.71
2018-05-03T13:29:03.261Z,43.71
2018-05-03T13:30:02.700Z,44.68
2018-05-03T13:32:44.786Z,45.81
2018-05-03T13:33:44.841Z,45.23
2018-05-03T13:34:44.647Z,44.84
2018-05-03T13:35:44.557Z,45.42
2018-05-03T13:36:44.491Z,45.23
2018-05-03T13:37:44.419Z,45.11
2018-05-03T13:38:44.357Z,45.42
2018-05-03T13:39:44.385Z,45.14
2018-05-03T13:40:44.183Z,45.42
2018-05-03T13:41:44.133Z,44.56
2018-05-03T13:42:44.016Z,45.92
2018-05-03T13:43:44.047Z,45.54
2018-05-03T13:44:44.170Z,45.52
2018-05-03T13:45:43.809Z,46.09
2018-05-03T13:46:44.096Z,45.45
2018-05-03T13:49:25.788Z,45.45
2018-05-03T13:50:26.802Z,43.98
2018-05-03T13:51:25.716Z,43.98
2018-05-03T13:52:25.651Z,44.29
2018-05-03T13:53:25.516Z,44.10
2018-05-03T13:54:25.497Z,45.52
2018-05-03T13:55:25.355Z,45.61
2018-05-03T13:58:07.295Z,45.23
2018-05-03T13:59:07.231Z,44.68
2018-05-03T14:00:07.184Z,43.71
2018-05-03T14:01:07.092Z,42.94
2018-05-03T14:02:06.997Z,42.44
2018-05-03T14:04:49.296Z,41.77
2018-05-03T14:05:49.377Z,41.67
2018-05-03T14:06:49.160Z,42.73
2018-05-03T14:07:49.115Z,43.62
2018-05-03T14:08:48.973Z,43.35
2018-05-03T14:11:31.318Z,42.87
2018-05-03T14:12:31.347Z,42.30
2018-05-03T14:13:31.151Z,42.30
2018-05-03T14:14:31.138Z,43.45
2018-05-03T14:15:31.011Z,43.26
2018-05-03T14:16:30.975Z,42.94
2018-05-03T14:17:30.869Z,42.37
2018-05-03T14:18:30.840Z,42.56
2018-05-03T14:19:30.664Z,41.79
2018-05-03T14:20:30.669Z,41.79
2018-05-03T14:21:30.539Z,42.27
2018-05-03T14:22:30.709Z,42.85
2018-05-03T14:23:30.366Z,42.37
2018-05-03T14:24:30.383Z,43.21
2018-05-03T14:25:30.206Z,42.73
2018-05-03T14:26:30.155Z,41.87
2018-05-03T14:27:30.091Z,41.37
2018-05-03T14:28:30.133Z,41.96
2018-05-03T14:29:29.910Z,42.64
2018-05-03T14:30:29.909Z,42.25
2018-05-03T14:31:29.746Z,42.35
2018-05-03T14:32:29.721Z,43.04
2018-05-03T14:33:29.624Z,43.14
2018-05-03T14:36:11.830Z,41.58
2018-05-03T14:37:11.826Z,41.46
2018-05-03T14:38:11.701Z,42.54
2018-05-03T14:39:12.697Z,42.64
2018-05-03T14:40:11.509Z,42.94
2018-05-03T14:41:11.437Z,43.33
2018-05-03T14:42:11.341Z,43.14
2018-05-03T14:43:11.354Z,42.94
2018-05-03T14:44:11.225Z,42.64
2018-05-03T14:45:11.174Z,42.37
2018-05-03T14:46:11.031Z,42.66
2018-05-03T14:47:11.099Z,42.85
2018-05-03T14:48:10.892Z,43.14
2018-05-03T14:49:10.820Z,42.73
2018-05-03T14:50:10.756Z,42.83
2018-05-03T14:52:52.798Z,42.64
2018-05-03T14:53:52.804Z,42.93